sensor_id;sensor_type;location;lat;lon;timestamp;pressure;altitude;pressure_sealevel;temperature;humidity
11114;BME280;5610;52.154;9.198;2024-01-15T00:02:41;98988.47;;;2.54;100.00
11114;BME280;5610;52.154;9.198;2024-01-15T00:05:26;98983.06;;;2.57;100.00
11114;BME280;5610;52.154;9.198;2024-01-15T00:08:11;98971.94;;;2.67;100.00
11114;BME280;5610;52.154;9.198;2024-01-15T00:10:56;98976.28;;;2.68;100.00
11114;BME280;5610;52.154;9.198;2024-01-15T00:13:42;98974.41;;;2.70;100.00
11114;BME280;5610;52.154;9.198;2024-01-15T00:16:28;98979.34;;;2.61;100.00
11114;BME280;5610;52.154;9.198;2024-01-15T00:19:13;98965.78;;;2.68;100.00
11114;BME280;5610;52.154;9.198;2024-01-15T00:21:59;98987.56;;;2.55;100.00
11114;BME280;5610;52.154;9.198;2024-01-15T00:24:44;98973.59;;;2.54;100.00
11114;BME280;5610;52.154;9.198;2024-01-15T00:27:29;98958.38;;;2.59;100.00
11114;BME280;5610;52.154;9.198;2024-01-15T00:30:14;98967.44;;;2.54;100.00
11114;BME280;5610;52.154;9.198;2024-01-15T00:33:01;98963.91;;;2.55;100.00
11114;BME280;5610;52.154;9.198;2024-01-15T00:35:46;98959.84;;;2.49;100.00
11114;BME280;5610;52.154;9.198;2024-01-15T00:38:32;98968.22;;;2.56;100.00
11114;BME280;5610;52.154;9.198;2024-01-15T00:41:17;98966.13;;;2.62;100.00
11114;BME280;5610;52.154;9.198;2024-01-15T00:44:03;98956.50;;;2.45;100.00
11114;BME280;5610;52.154;9.198;2024-01-15T00:46:48;98957.28;;;2.47;100.00
11114;BME280;5610;52.154;9.198;2024-01-15T00:49:35;98944.47;;;2.57;100.00
11114;BME280;5610;52.154;9.198;2024-01-15T00:52:20;98945.75;;;2.50;100.00
11114;BME280;5610;52.154;9.198;2024-01-15T00:55:06;98950.34;;;2.62;100.00
11114;BME280;5610;52.154;9.198;2024-01-15T00:57:51;98954.41;;;2.68;100.00
11114;BME280;5610;52.154;9.198;2024-01-15T01:00:36;98951.00;;;2.66;100.00
11114;BME280;5610;52.154;9.198;2024-01-15T01:03:21;98940.56;;;2.64;100.00
11114;BME280;5610;52.154;9.198;2024-01-15T01:06:08;98952.13;;;2.62;100.00
11114;BME280;5610;52.154;9.198;2024-01-15T01:08:53;98944.47;;;2.57;100.00
11114;BME280;5610;52.154;9.198;2024-01-15T01:11:39;98932.19;;;2.58;100.00
11114;BME280;5610;52.154;9.198;2024-01-15T01:14:24;98943.63;;;2.57;100.00
11114;BME280;5610;52.154;9.198;2024-01-15T01:17:09;98935.91;;;2.38;100.00
11114;BME280;5610;52.154;9.198;2024-01-15T01:19:54;98930.94;;;2.33;100.00
11114;BME280;5610;52.154;9.198;2024-01-15T01:22:41;98927.09;;;2.39;100.00
11114;BME280;5610;52.154;9.198;2024-01-15T01:25:27;98940.75;;;2.45;100.00
11114;BME280;5610;52.154;9.198;2024-01-15T01:28:12;98953.88;;;2.45;100.00
11114;BME280;5610;52.154;9.198;2024-01-15T01:30:57;98934.53;;;2.46;100.00
11114;BME280;5610;52.154;9.198;2024-01-15T01:33:43;98935.06;;;2.53;100.00
11114;BME280;5610;52.154;9.198;2024-01-15T01:36:28;98928.38;;;2.47;100.00
11114;BME280;5610;52.154;9.198;2024-01-15T01:39:15;98921.34;;;2.48;100.00
11114;BME280;5610;52.154;9.198;2024-01-15T01:42:00;98936.28;;;2.47;100.00
11114;BME280;5610;52.154;9.198;2024-01-15T01:44:45;98928.59;;;2.59;100.00
11114;BME280;5610;52.154;9.198;2024-01-15T01:47:31;98916.59;;;2.55;100.00
11114;BME280;5610;52.154;9.198;2024-01-15T01:50:17;98913.63;;;2.61;100.00
11114;BME280;5610;52.154;9.198;2024-01-15T01:53:02;98906.63;;;2.60;100.00
11114;BME280;5610;52.154;9.198;2024-01-15T01:55:50;98914.38;;;2.63;100.00
11114;BME280;5610;52.154;9.198;2024-01-15T01:58:36;98903.41;;;2.70;100.00
11114;BME280;5610;52.154;9.198;2024-01-15T02:01:21;98897.22;;;2.71;100.00
11114;BME280;5610;52.154;9.198;2024-01-15T02:04:06;98902.03;;;2.79;100.00
11114;BME280;5610;52.154;9.198;2024-01-15T02:06:52;98899.25;;;2.82;100.00
11114;BME280;5610;52.154;9.198;2024-01-15T02:09:37;98909.03;;;2.94;100.00
11114;BME280;5610;52.154;9.198;2024-01-15T02:12:24;98902.94;;;2.94;100.00
11114;BME280;5610;52.154;9.198;2024-01-15T02:15:09;98897.38;;;2.84;100.00
11114;BME280;5610;52.154;9.198;2024-01-15T02:18:02;98896.44;;;2.85;100.00
11114;BME280;5610;52.154;9.198;2024-01-15T02:20:48;98900.25;;;2.80;100.00
11114;BME280;5610;52.154;9.198;2024-01-15T02:23:34;98898.47;;;2.80;100.00
11114;BME280;5610;52.154;9.198;2024-01-15T02:26:19;98899.50;;;2.78;100.00
11114;BME280;5610;52.154;9.198;2024-01-15T02:29:05;98910.66;;;2.81;100.00
11114;BME280;5610;52.154;9.198;2024-01-15T02:31:52;98903.47;;;2.85;100.00
11114;BME280;5610;52.154;9.198;2024-01-15T02:34:37;98900.75;;;2.86;100.00
11114;BME280;5610;52.154;9.198;2024-01-15T02:37:23;98898.47;;;2.80;100.00
11114;BME280;5610;52.154;9.198;2024-01-15T02:40:10;98906.63;;;2.75;100.00
11114;BME280;5610;52.154;9.198;2024-01-15T02:42:56;98895.84;;;2.80;100.00
11114;BME280;5610;52.154;9.198;2024-01-15T02:45:41;98903.63;;;2.82;100.00
11114;BME280;5610;52.154;9.198;2024-01-15T02:48:26;98910.63;;;2.83;100.00
11114;BME280;5610;52.154;9.198;2024-01-15T02:51:11;98902.28;;;2.90;100.00
11114;BME280;5610;52.154;9.198;2024-01-15T02:53:57;98904.31;;;2.85;100.00
11114;BME280;5610;52.154;9.198;2024-01-15T02:56:43;98912.41;;;2.82;100.00
11114;BME280;5610;52.154;9.198;2024-01-15T02:59:28;98915.69;;;2.86;100.00
11114;BME280;5610;52.154;9.198;2024-01-15T03:02:13;98912.44;;;2.96;100.00
11114;BME280;5610;52.154;9.198;2024-01-15T03:04:58;98917.13;;;2.91;100.00
11114;BME280;5610;52.154;9.198;2024-01-15T03:07:44;98898.88;;;2.88;100.00
11114;BME280;5610;52.154;9.198;2024-01-15T03:10:29;98899.28;;;2.96;100.00
11114;BME280;5610;52.154;9.198;2024-01-15T03:13:15;98889.53;;;2.98;100.00
11114;BME280;5610;52.154;9.198;2024-01-15T03:16:04;98884.97;;;2.86;100.00
11114;BME280;5610;52.154;9.198;2024-01-15T03:18:49;98900.03;;;2.98;100.00
11114;BME280;5610;52.154;9.198;2024-01-15T03:21:34;98904.75;;;3.08;100.00
11114;BME280;5610;52.154;9.198;2024-01-15T03:24:19;98901.47;;;3.04;100.00
11114;BME280;5610;52.154;9.198;2024-01-15T03:27:04;98896.38;;;3.01;100.00
11114;BME280;5610;52.154;9.198;2024-01-15T03:29:51;98897.66;;;2.94;100.00
11114;BME280;5610;52.154;9.198;2024-01-15T03:32:36;98888.53;;;2.85;100.00
11114;BME280;5610;52.154;9.198;2024-01-15T03:35:21;98901.44;;;2.90;100.00
11114;BME280;5610;52.154;9.198;2024-01-15T03:38:06;98894.78;;;2.98;100.00
11114;BME280;5610;52.154;9.198;2024-01-15T03:40:52;98892.16;;;2.98;100.00
11114;BME280;5610;52.154;9.198;2024-01-15T03:43:37;98886.19;;;3.11;100.00
11114;BME280;5610;52.154;9.198;2024-01-15T03:46:23;98903.31;;;3.02;100.00
11114;BME280;5610;52.154;9.198;2024-01-15T03:49:08;98902.47;;;3.01;100.00
11114;BME280;5610;52.154;9.198;2024-01-15T03:51:53;98894.59;;;3.01;100.00
11114;BME280;5610;52.154;9.198;2024-01-15T03:54:39;98903.97;;;2.91;100.00
11114;BME280;5610;52.154;9.198;2024-01-15T03:57:23;98895.13;;;2.92;100.00
11114;BME280;5610;52.154;9.198;2024-01-15T04:00:10;98906.25;;;2.82;100.00
11114;BME280;5610;52.154;9.198;2024-01-15T04:02:57;98904.31;;;2.85;100.00
11114;BME280;5610;52.154;9.198;2024-01-15T04:05:42;98905.25;;;2.84;100.00
11114;BME280;5610;52.154;9.198;2024-01-15T04:08:27;98919.16;;;2.86;100.00
11114;BME280;5610;52.154;9.198;2024-01-15T04:11:12;98916.53;;;2.86;100.00
11114;BME280;5610;52.154;9.198;2024-01-15T04:13:58;98919.25;;;2.85;100.00
11114;BME280;5610;52.154;9.198;2024-01-15T04:16:43;98914.78;;;3.01;100.00
11114;BME280;5610;52.154;9.198;2024-01-15T04:19:29;98933.97;;;3.03;100.00
11114;BME280;5610;52.154;9.198;2024-01-15T04:22:14;98900.19;;;2.95;100.00
11114;BME280;5610;52.154;9.198;2024-01-15T04:24:59;98914.03;;;2.99;100.00
11114;BME280;5610;52.154;9.198;2024-01-15T04:27:44;98900.03;;;2.98;100.00
11114;BME280;5610;52.154;9.198;2024-01-15T04:30:30;98909.63;;;2.99;100.00
11114;BME280;5610;52.154;9.198;2024-01-15T04:33:15;98891.50;;;3.09;100.00
11114;BME280;5610;52.154;9.198;2024-01-15T04:36:03;98894.63;;;3.16;100.00
11114;BME280;5610;52.154;9.198;2024-01-15T04:38:48;98886.44;;;3.06;100.00
11114;BME280;5610;52.154;9.198;2024-01-15T04:41:34;98879.25;;;2.94;100.00
11114;BME280;5610;52.154;9.198;2024-01-15T04:44:19;98876.28;;;3.00;100.00
11114;BME280;5610;52.154;9.198;2024-01-15T04:47:04;98887.44;;;2.89;100.00
11114;BME280;5610;52.154;9.198;2024-01-15T04:49:50;98888.28;;;2.90;100.00
11114;BME280;5610;52.154;9.198;2024-01-15T04:52:36;98881.41;;;2.87;100.00
11114;BME280;5610;52.154;9.198;2024-01-15T04:55:22;98894.44;;;2.89;100.00
11114;BME280;5610;52.154;9.198;2024-01-15T04:58:07;98888.22;;;3.06;100.00
11114;BME280;5610;52.154;9.198;2024-01-15T05:00:52;98873.72;;;2.98;100.00
11114;BME280;5610;52.154;9.198;2024-01-15T05:03:38;98885.50;;;3.07;100.00
11114;BME280;5610;52.154;9.198;2024-01-15T05:06:23;98875.91;;;3.06;100.00
11114;BME280;5610;52.154;9.198;2024-01-15T05:09:09;98870.91;;;3.01;100.00
11114;BME280;5610;52.154;9.198;2024-01-15T05:11:54;98872.88;;;2.98;100.00
11114;BME280;5610;52.154;9.198;2024-01-15T05:14:39;98888.38;;;3.02;100.00
11114;BME280;5610;52.154;9.198;2024-01-15T05:17:25;98871.88;;;3.15;100.00
11114;BME280;5610;52.154;9.198;2024-01-15T05:20:10;98872.88;;;2.98;100.00
11114;BME280;5610;52.154;9.198;2024-01-15T05:22:56;98872.53;;;3.04;100.00
11114;BME280;5610;52.154;9.198;2024-01-15T05:25:42;98874.41;;;3.16;100.00
11114;BME280;5610;52.154;9.198;2024-01-15T05:28:28;98871.13;;;3.13;100.00
11114;BME280;5610;52.154;9.198;2024-01-15T05:31:13;98848.03;;;3.18;100.00
11114;BME280;5610;52.154;9.198;2024-01-15T05:33:58;98868.97;;;3.05;100.00
11114;BME280;5610;52.154;9.198;2024-01-15T05:36:43;98854.63;;;2.95;100.00
11114;BME280;5610;52.154;9.198;2024-01-15T05:39:31;98867.72;;;2.96;100.00
11114;BME280;5610;52.154;9.198;2024-01-15T05:42:18;98863.41;;;3.10;100.00
11114;BME280;5610;52.154;9.198;2024-01-15T05:45:04;98857.28;;;3.09;100.00
11114;BME280;5610;52.154;9.198;2024-01-15T05:47:50;98864.47;;;3.21;100.00
11114;BME280;5610;52.154;9.198;2024-01-15T05:50:35;98862.56;;;3.09;100.00
11114;BME280;5610;52.154;9.198;2024-01-15T05:53:20;98866.81;;;3.12;100.00
11114;BME280;5610;52.154;9.198;2024-01-15T05:56:06;98863.25;;;3.13;100.00
11114;BME280;5610;52.154;9.198;2024-01-15T05:58:52;98858.53;;;3.03;100.00
11114;BME280;5610;52.154;9.198;2024-01-15T06:01:38;98864.22;;;2.96;100.00
11114;BME280;5610;52.154;9.198;2024-01-15T06:04:23;98858.16;;;3.10;100.00
11114;BME280;5610;52.154;9.198;2024-01-15T06:07:08;98849.13;;;2.99;100.00
11114;BME280;5610;52.154;9.198;2024-01-15T06:09:53;98863.47;;;2.94;100.00
11114;BME280;5610;52.154;9.198;2024-01-15T06:12:42;98872.50;;;2.90;100.00
11114;BME280;5610;52.154;9.198;2024-01-15T06:15:29;98851.94;;;2.96;100.00
11114;BME280;5610;52.154;9.198;2024-01-15T06:18:14;98855.50;;;3.10;100.00
11114;BME280;5610;52.154;9.198;2024-01-15T06:20:59;98860.03;;;3.08;100.00
11114;BME280;5610;52.154;9.198;2024-01-15T06:23:44;98852.72;;;3.13;100.00
11114;BME280;5610;52.154;9.198;2024-01-15T06:26:29;98858.09;;;2.95;100.00
11114;BME280;5610;52.154;9.198;2024-01-15T06:29:14;98864.72;;;3.02;100.00
11114;BME280;5610;52.154;9.198;2024-01-15T06:32:01;98862.53;;;2.95;100.00
11114;BME280;5610;52.154;9.198;2024-01-15T06:34:46;98869.78;;;2.91;100.00
11114;BME280;5610;52.154;9.198;2024-01-15T06:37:31;98866.94;;;2.94;100.00
11114;BME280;5610;52.154;9.198;2024-01-15T06:40:16;98871.47;;;2.92;100.00
11114;BME280;5610;52.154;9.198;2024-01-15T06:43:01;98883.38;;;2.84;100.00
11114;BME280;5610;52.154;9.198;2024-01-15T06:45:47;98883.72;;;2.78;100.00
11114;BME280;5610;52.154;9.198;2024-01-15T06:48:33;98884.97;;;2.86;100.00
11114;BME280;5610;52.154;9.198;2024-01-15T06:51:19;98887.53;;;2.72;100.00
11114;BME280;5610;52.154;9.198;2024-01-15T06:54:04;98888.91;;;2.63;100.00
11114;BME280;5610;52.154;9.198;2024-01-15T06:56:49;98876.53;;;2.65;100.00
11114;BME280;5610;52.154;9.198;2024-01-15T06:59:35;98885.50;;;2.77;100.00
11114;BME280;5610;52.154;9.198;2024-01-15T07:02:20;98875.63;;;2.81;100.00
11114;BME280;5610;52.154;9.198;2024-01-15T07:05:07;98875.03;;;2.61;100.00
11114;BME280;5610;52.154;9.198;2024-01-15T07:07:52;98879.50;;;2.75;100.00
11114;BME280;5610;52.154;9.198;2024-01-15T07:10:37;98878.72;;;2.73;100.00
11114;BME280;5610;52.154;9.198;2024-01-15T07:13:23;98880.84;;;2.82;100.00
11114;BME280;5610;52.154;9.198;2024-01-15T07:16:08;98871.41;;;2.78;100.00
11114;BME280;5610;52.154;9.198;2024-01-15T07:18:53;98876.56;;;2.80;100.00
11114;BME280;5610;52.154;9.198;2024-01-15T07:21:41;98880.41;;;2.74;100.00
11114;BME280;5610;52.154;9.198;2024-01-15T07:24:27;98875.59;;;2.66;100.00
11114;BME280;5610;52.154;9.198;2024-01-15T07:27:12;98886.59;;;2.73;100.00
11114;BME280;5610;52.154;9.198;2024-01-15T07:29:58;98887.94;;;2.80;100.00
11114;BME280;5610;52.154;9.198;2024-01-15T07:32:43;98891.59;;;2.78;100.00
11114;BME280;5610;52.154;9.198;2024-01-15T07:35:28;98883.72;;;2.78;100.00
11114;BME280;5610;52.154;9.198;2024-01-15T07:38:14;98898.81;;;2.74;100.00
11114;BME280;5610;52.154;9.198;2024-01-15T07:41:00;98889.41;;;2.70;100.00
11114;BME280;5610;52.154;9.198;2024-01-15T07:43:45;98886.69;;;2.71;100.00
11114;BME280;5610;52.154;9.198;2024-01-15T07:46:30;98883.97;;;2.73;100.00
11114;BME280;5610;52.154;9.198;2024-01-15T07:49:16;98887.72;;;2.69;100.00
11114;BME280;5610;52.154;9.198;2024-01-15T07:52:01;98891.25;;;2.84;100.00
11114;BME280;5610;52.154;9.198;2024-01-15T07:54:48;98905.84;;;2.89;100.00
11114;BME280;5610;52.154;9.198;2024-01-15T07:57:33;98900.41;;;2.92;100.00
11114;BME280;5610;52.154;9.198;2024-01-15T08:00:19;98902.78;;;2.81;100.00
11114;BME280;5610;52.154;9.198;2024-01-15T08:03:05;98901.69;;;2.85;100.00
11114;BME280;5610;52.154;9.198;2024-01-15T08:05:50;98903.97;;;2.91;100.00
11114;BME280;5610;52.154;9.198;2024-01-15T08:08:37;98914.66;;;2.88;100.00
11114;BME280;5610;52.154;9.198;2024-01-15T08:11:24;98915.47;;;3.05;100.00
11114;BME280;5610;52.154;9.198;2024-01-15T08:14:09;98908.38;;;3.21;100.00
11114;BME280;5610;52.154;9.198;2024-01-15T08:16:55;98908.59;;;3.32;100.00
11114;BME280;5610;52.154;9.198;2024-01-15T08:19:40;98913.56;;;3.37;100.00
11114;BME280;5610;52.154;9.198;2024-01-15T08:22:26;98915.25;;;3.52;100.00
11114;BME280;5610;52.154;9.198;2024-01-15T08:25:11;98925.69;;;3.25;100.00
11114;BME280;5610;52.154;9.198;2024-01-15T08:27:58;98916.28;;;3.35;100.00
11114;BME280;5610;52.154;9.198;2024-01-15T08:30:43;98915.66;;;3.16;100.00
11114;BME280;5610;52.154;9.198;2024-01-15T08:33:29;98913.16;;;3.28;100.00
11114;BME280;5610;52.154;9.198;2024-01-15T08:36:14;98918.56;;;3.41;100.00
11114;BME280;5610;52.154;9.198;2024-01-15T08:38:59;98908.19;;;3.38;100.00
11114;BME280;5610;52.154;9.198;2024-01-15T08:41:45;98910.28;;;3.33;100.00
11114;BME280;5610;52.154;9.198;2024-01-15T08:44:32;98907.28;;;3.39;100.00
11114;BME280;5610;52.154;9.198;2024-01-15T08:47:18;98919.47;;;3.26;100.00
11114;BME280;5610;52.154;9.198;2024-01-15T08:50:04;98918.53;;;3.27;100.00
11114;BME280;5610;52.154;9.198;2024-01-15T08:52:50;98913.31;;;3.55;100.00
11114;BME280;5610;52.154;9.198;2024-01-15T08:55:35;98908.25;;;3.52;100.00
11114;BME280;5610;52.154;9.198;2024-01-15T08:58:21;98909.16;;;3.51;100.00
11114;BME280;5610;52.154;9.198;2024-01-15T09:01:07;98896.41;;;3.60;100.00
11114;BME280;5610;52.154;9.198;2024-01-15T09:03:53;98898.34;;;3.56;100.00
11114;BME280;5610;52.154;9.198;2024-01-15T09:06:39;98899.94;;;3.58;100.00
11114;BME280;5610;52.154;9.198;2024-01-15T09:09:24;98905.50;;;3.54;100.00
11114;BME280;5610;52.154;9.198;2024-01-15T09:12:09;98905.88;;;3.76;100.00
11114;BME280;5610;52.154;9.198;2024-01-15T09:14:54;98898.72;;;3.64;100.00
11114;BME280;5610;52.154;9.198;2024-01-15T09:17:41;98913.97;;;3.73;100.00
11114;BME280;5610;52.154;9.198;2024-01-15T09:20:27;98923.47;;;3.76;100.00
11114;BME280;5610;52.154;9.198;2024-01-15T09:23:12;98910.00;;;3.80;100.00
11114;BME280;5610;52.154;9.198;2024-01-15T09:25:57;98912.09;;;3.90;100.00
11114;BME280;5610;52.154;9.198;2024-01-15T09:28:43;98913.69;;;3.64;100.00
11114;BME280;5610;52.154;9.198;2024-01-15T09:31:28;98916.78;;;3.56;100.00
11114;BME280;5610;52.154;9.198;2024-01-15T09:34:15;98908.78;;;3.43;100.00
11114;BME280;5610;52.154;9.198;2024-01-15T09:37:00;98904.19;;;3.47;100.00
11114;BME280;5610;52.154;9.198;2024-01-15T09:39:47;98918.56;;;3.41;100.00
11114;BME280;5610;52.154;9.198;2024-01-15T09:42:34;98914.00;;;3.29;100.00
11114;BME280;5610;52.154;9.198;2024-01-15T09:45:20;98918.53;;;3.27;100.00
11114;BME280;5610;52.154;9.198;2024-01-15T09:48:06;98913.09;;;3.44;100.00
11114;BME280;5610;52.154;9.198;2024-01-15T09:50:53;98915.53;;;3.33;100.00
11114;BME280;5610;52.154;9.198;2024-01-15T09:53:39;98916.22;;;3.51;100.00
11114;BME280;5610;52.154;9.198;2024-01-15T09:56:25;98912.00;;;3.63;100.00
11114;BME280;5610;52.154;9.198;2024-01-15T09:59:11;98912.84;;;3.63;100.00
11114;BME280;5610;52.154;9.198;2024-01-15T10:01:58;98910.28;;;4.19;100.00
11114;BME280;5610;52.154;9.198;2024-01-15T10:04:45;98915.06;;;4.67;100.00
11114;BME280;5610;52.154;9.198;2024-01-15T10:07:33;98910.34;;;4.73;100.00
11114;BME280;5610;52.154;9.198;2024-01-15T10:10:20;98914.84;;;4.44;100.00
11114;BME280;5610;52.154;9.198;2024-01-15T10:13:07;98917.91;;;4.23;100.00
11114;BME280;5610;52.154;9.198;2024-01-15T10:15:53;98925.06;;;3.93;100.00
11114;BME280;5610;52.154;9.198;2024-01-15T10:18:38;98914.91;;;3.72;100.00
11114;BME280;5610;52.154;9.198;2024-01-15T10:21:24;98913.69;;;3.92;100.00
11114;BME280;5610;52.154;9.198;2024-01-15T10:24:12;98913.06;;;4.30;100.00
11114;BME280;5610;52.154;9.198;2024-01-15T10:27:05;98916.94;;;4.38;100.00
11114;BME280;5610;52.154;9.198;2024-01-15T10:29:50;98924.06;;;4.36;100.00
11114;BME280;5610;52.154;9.198;2024-01-15T10:32:36;98905.78;;;4.06;100.00
11114;BME280;5610;52.154;9.198;2024-01-15T10:35:21;98912.81;;;4.20;100.00
11114;BME280;5610;52.154;9.198;2024-01-15T10:38:06;98906.84;;;3.90;100.00
11114;BME280;5610;52.154;9.198;2024-01-15T10:40:54;98908.53;;;3.91;100.00
11114;BME280;5610;52.154;9.198;2024-01-15T10:43:39;98906.25;;;3.70;100.00
11114;BME280;5610;52.154;9.198;2024-01-15T10:46:25;98907.56;;;3.92;100.00
11114;BME280;5610;52.154;9.198;2024-01-15T10:49:11;98905.19;;;4.16;100.00
11114;BME280;5610;52.154;9.198;2024-01-15T10:51:57;98911.06;;;3.92;100.00
11114;BME280;5610;52.154;9.198;2024-01-15T10:54:43;98899.56;;;3.93;100.00
11114;BME280;5610;52.154;9.198;2024-01-15T10:57:30;98912.84;;;4.06;100.00
11114;BME280;5610;52.154;9.198;2024-01-15T11:00:15;98910.47;;;4.01;100.00
11114;BME280;5610;52.154;9.198;2024-01-15T11:03:03;98911.44;;;3.86;100.00
11114;BME280;5610;52.154;9.198;2024-01-15T11:05:49;98914.44;;;3.94;100.00
11114;BME280;5610;52.154;9.198;2024-01-15T11:08:35;98907.31;;;3.68;100.00
11114;BME280;5610;52.154;9.198;2024-01-15T11:11:21;98904.84;;;3.93;100.00
11114;BME280;5610;52.154;9.198;2024-01-15T11:14:08;98896.53;;;4.13;100.00
11114;BME280;5610;52.154;9.198;2024-01-15T11:16:55;98907.94;;;4.00;100.00
11114;BME280;5610;52.154;9.198;2024-01-15T11:19:45;98904.47;;;3.99;100.00
11114;BME280;5610;52.154;9.198;2024-01-15T11:22:48;98892.50;;;4.08;100.00
11114;BME280;5610;52.154;9.198;2024-01-15T11:25:34;98916.16;;;3.95;100.00
11114;BME280;5610;52.154;9.198;2024-01-15T11:28:48;98884.25;;;3.85;100.00
11114;BME280;5610;52.154;9.198;2024-01-15T11:32:03;98890.44;;;3.99;100.00
11114;BME280;5610;52.154;9.198;2024-01-15T11:34:51;98893.91;;;3.99;100.00
11114;BME280;5610;52.154;9.198;2024-01-15T11:37:57;98883.09;;;4.04;100.00
11114;BME280;5610;52.154;9.198;2024-01-15T11:40:44;98884.34;;;3.98;100.00
11114;BME280;5610;52.154;9.198;2024-01-15T11:43:31;98891.84;;;4.04;100.00
11114;BME280;5610;52.154;9.198;2024-01-15T11:46:17;98881.81;;;3.97;100.00
11114;BME280;5610;52.154;9.198;2024-01-15T11:49:04;98882.66;;;3.83;100.00
11114;BME280;5610;52.154;9.198;2024-01-15T11:51:52;98891.13;;;3.74;100.00
11114;BME280;5610;52.154;9.198;2024-01-15T11:54:41;98881.72;;;3.84;100.00
11114;BME280;5610;52.154;9.198;2024-01-15T11:57:40;98886.41;;;3.79;100.00
11114;BME280;5610;52.154;9.198;2024-01-15T12:00:26;98886.50;;;3.92;100.00
11114;BME280;5610;52.154;9.198;2024-01-15T12:03:11;98888.75;;;3.98;100.00
11114;BME280;5610;52.154;9.198;2024-01-15T12:05:58;98878.34;;;4.37;100.00
11114;BME280;5610;52.154;9.198;2024-01-15T12:08:44;98873.41;;;4.46;100.00
11114;BME280;5610;52.154;9.198;2024-01-15T12:11:30;98867.88;;;4.63;100.00
11114;BME280;5610;52.154;9.198;2024-01-15T12:14:16;98873.53;;;4.57;100.00
11114;BME280;5610;52.154;9.198;2024-01-15T12:17:01;98877.19;;;4.68;100.00
11114;BME280;5610;52.154;9.198;2024-01-15T12:19:47;98869.25;;;4.41;100.00
11114;BME280;5610;52.154;9.198;2024-01-15T12:22:33;98869.19;;;4.29;100.00
11114;BME280;5610;52.154;9.198;2024-01-15T12:25:19;98874.69;;;4.26;100.00
11114;BME280;5610;52.154;9.198;2024-01-15T12:28:05;98877.97;;;4.15;100.00
11114;BME280;5610;52.154;9.198;2024-01-15T12:30:51;98875.31;;;3.88;100.00
11114;BME280;5610;52.154;9.198;2024-01-15T12:33:37;98870.72;;;3.77;100.00
11114;BME280;5610;52.154;9.198;2024-01-15T12:36:22;98874.06;;;3.79;100.00
11114;BME280;5610;52.154;9.198;2024-01-15T12:39:12;98869.66;;;3.80;100.00
11114;BME280;5610;52.154;9.198;2024-01-15T12:41:58;98873.06;;;3.82;100.00
11114;BME280;5610;52.154;9.198;2024-01-15T12:44:44;98869.19;;;3.88;100.00
11114;BME280;5610;52.154;9.198;2024-01-15T12:47:30;98866.75;;;3.84;100.00
11114;BME280;5610;52.154;9.198;2024-01-15T12:50:16;98860.25;;;3.90;100.00
11114;BME280;5610;52.154;9.198;2024-01-15T12:53:01;98866.63;;;4.00;100.00
11114;BME280;5610;52.154;9.198;2024-01-15T12:55:48;98870.06;;;3.88;100.00
11114;BME280;5610;52.154;9.198;2024-01-15T12:58:33;98877.75;;;3.91;100.00
11114;BME280;5610;52.154;9.198;2024-01-15T13:01:18;98878.84;;;4.01;100.00
11114;BME280;5610;52.154;9.198;2024-01-15T13:04:03;98879.41;;;4.06;100.00
11114;BME280;5610;52.154;9.198;2024-01-15T13:06:52;98869.09;;;4.03;100.00
11114;BME280;5610;52.154;9.198;2024-01-15T13:09:37;98867.38;;;4.17;100.00
11114;BME280;5610;52.154;9.198;2024-01-15T13:12:24;98880.81;;;4.12;100.00
11114;BME280;5610;52.154;9.198;2024-01-15T13:15:09;98866.25;;;3.92;100.00
11114;BME280;5610;52.154;9.198;2024-01-15T13:17:55;98876.72;;;3.79;100.00
11114;BME280;5610;52.154;9.198;2024-01-15T13:20:41;98874.25;;;4.05;100.00
11114;BME280;5610;52.154;9.198;2024-01-15T13:23:26;98872.09;;;3.97;100.00
11114;BME280;5610;52.154;9.198;2024-01-15T13:26:12;98879.72;;;4.02;100.00
11114;BME280;5610;52.154;9.198;2024-01-15T13:28:59;98859.75;;;4.12;100.00
11114;BME280;5610;52.154;9.198;2024-01-15T13:31:44;98873.50;;;4.03;100.00
11114;BME280;5610;52.154;9.198;2024-01-15T13:34:30;98874.06;;;3.94;100.00
11114;BME280;5610;52.154;9.198;2024-01-15T13:37:16;98884.91;;;3.75;100.00
11114;BME280;5610;52.154;9.198;2024-01-15T13:40:01;98877.19;;;3.72;100.00
11114;BME280;5610;52.154;9.198;2024-01-15T13:42:47;98868.06;;;3.49;100.00
11114;BME280;5610;52.154;9.198;2024-01-15T13:45:34;98877.56;;;3.37;100.00
11114;BME280;5610;52.154;9.198;2024-01-15T13:48:21;98867.97;;;3.36;100.00
11114;BME280;5610;52.154;9.198;2024-01-15T13:51:06;98883.78;;;3.50;100.00
11114;BME280;5610;52.154;9.198;2024-01-15T13:53:51;98872.03;;;3.56;100.00
11114;BME280;5610;52.154;9.198;2024-01-15T13:56:37;98875.69;;;3.53;100.00
11114;BME280;5610;52.154;9.198;2024-01-15T13:59:22;98875.88;;;3.65;100.00
11114;BME280;5610;52.154;9.198;2024-01-15T14:02:08;98876.66;;;3.81;100.00
11114;BME280;5610;52.154;9.198;2024-01-15T14:04:53;98869.03;;;3.62;100.00
11114;BME280;5610;52.154;9.198;2024-01-15T14:07:39;98872.03;;;3.42;100.00
11114;BME280;5610;52.154;9.198;2024-01-15T14:10:24;98866.28;;;3.35;100.00
11114;BME280;5610;52.154;9.198;2024-01-15T14:13:09;98874.75;;;3.40;100.00
11114;BME280;5610;52.154;9.198;2024-01-15T14:15:54;98865.91;;;3.27;100.00
11114;BME280;5610;52.154;9.198;2024-01-15T14:18:41;98875.28;;;3.31;100.00
11114;BME280;5610;52.154;9.198;2024-01-15T14:21:26;98871.31;;;3.24;100.00
11114;BME280;5610;52.154;9.198;2024-01-15T14:24:11;98870.47;;;3.23;100.00
11114;BME280;5610;52.154;9.198;2024-01-15T14:26:57;98875.66;;;3.11;100.00
11114;BME280;5610;52.154;9.198;2024-01-15T14:29:42;98890.38;;;2.99;100.00
11114;BME280;5610;52.154;9.198;2024-01-15T14:32:27;98877.69;;;3.06;100.00
11114;BME280;5610;52.154;9.198;2024-01-15T14:35:14;98890.13;;;3.18;100.00
11114;BME280;5610;52.154;9.198;2024-01-15T14:38:00;98885.03;;;3.15;100.00
11114;BME280;5610;52.154;9.198;2024-01-15T14:40:45;98895.09;;;3.22;100.00
11114;BME280;5610;52.154;9.198;2024-01-15T14:43:30;98892.50;;;3.37;100.00
11114;BME280;5610;52.154;9.198;2024-01-15T14:46:17;98891.84;;;3.33;100.00
11114;BME280;5610;52.154;9.198;2024-01-15T14:49:02;98894.72;;;3.14;100.00
11114;BME280;5610;52.154;9.198;2024-01-15T14:51:48;98899.88;;;3.16;100.00